sensor_id;sensor_type;location;lat;lon;timestamp;P1;durP1;ratioP1;P2;durP2;ratioP2
27357;SDS011;14831;50.474;7.616;2023-12-04T00:00:52;25.4;;;13.0;;
27357;SDS011;14831;50.474;7.616;2023-12-04T00:05:52;25.4;;;13.0;;
27357;SDS011;14831;50.474;7.616;2023-12-04T00:10:52;25.4;;;13.0;;
27357;SDS011;14831;50.474;7.616;2023-12-04T00:15:52;25.4;;;13.0;;
27357;SDS011;14831;50.474;7.616;2023-12-04T00:20:52;25.4;;;13.0;;
27357;SDS011;14831;50.474;7.616;2023-12-04T00:25:53;25.4;;;13.0;;
27357;SDS011;14831;50.474;7.616;2023-12-04T00:30:52;24.7;;;13.2;;
27357;SDS011;14831;50.474;7.616;2023-12-04T00:35:52;24.7;;;13.2;;
27357;SDS011;14831;50.474;7.616;2023-12-04T00:40:52;24.7;;;13.2;;
27357;SDS011;14831;50.474;7.616;2023-12-04T00:45:52;24.7;;;13.2;;
27357;SDS011;14831;50.474;7.616;2023-12-04T00:50:52;24.7;;;13.2;;
27357;SDS011;14831;50.474;7.616;2023-12-04T00:55:52;24.7;;;13.2;;
27357;SDS011;14831;50.474;7.616;2023-12-04T01:00:52;25.2;;;13.2;;
27357;SDS011;14831;50.474;7.616;2023-12-04T01:05:52;25.2;;;13.2;;
27357;SDS011;14831;50.474;7.616;2023-12-04T01:10:52;25.2;;;13.2;;
27357;SDS011;14831;50.474;7.616;2023-12-04T01:15:52;25.2;;;13.2;;
27357;SDS011;14831;50.474;7.616;2023-12-04T01:20:52;25.2;;;13.2;;
27357;SDS011;14831;50.474;7.616;2023-12-04T01:25:52;25.2;;;13.2;;
27357;SDS011;14831;50.474;7.616;2023-12-04T01:30:52;28.1;;;13.9;;
27357;SDS011;14831;50.474;7.616;2023-12-04T01:35:52;28.1;;;13.9;;
27357;SDS011;14831;50.474;7.616;2023-12-04T01:40:52;28.1;;;13.9;;
27357;SDS011;14831;50.474;7.616;2023-12-04T01:45:52;28.1;;;13.9;;
27357;SDS011;14831;50.474;7.616;2023-12-04T01:50:52;28.1;;;13.9;;
27357;SDS011;14831;50.474;7.616;2023-12-04T01:55:53;28.1;;;13.9;;
27357;SDS011;14831;50.474;7.616;2023-12-04T02:00:52;27.2;;;13.6;;
27357;SDS011;14831;50.474;7.616;2023-12-04T02:05:52;27.2;;;13.6;;
27357;SDS011;14831;50.474;7.616;2023-12-04T02:10:52;27.2;;;13.6;;
27357;SDS011;14831;50.474;7.616;2023-12-04T02:15:53;27.2;;;13.6;;
27357;SDS011;14831;50.474;7.616;2023-12-04T02:20:53;27.2;;;13.6;;
27357;SDS011;14831;50.474;7.616;2023-12-04T02:25:54;27.2;;;13.6;;
27357;SDS011;14831;50.474;7.616;2023-12-04T02:30:52;24.2;;;12.7;;
27357;SDS011;14831;50.474;7.616;2023-12-04T02:35:53;24.2;;;12.7;;
27357;SDS011;14831;50.474;7.616;2023-12-04T02:40:52;24.2;;;12.7;;
27357;SDS011;14831;50.474;7.616;2023-12-04T02:45:52;24.2;;;12.7;;
27357;SDS011;14831;50.474;7.616;2023-12-04T02:50:52;24.2;;;12.7;;
27357;SDS011;14831;50.474;7.616;2023-12-04T02:55:52;24.2;;;12.7;;
27357;SDS011;14831;50.474;7.616;2023-12-04T03:00:52;25.9;;;12.9;;
27357;SDS011;14831;50.474;7.616;2023-12-04T03:05:52;25.9;;;12.9;;
27357;SDS011;14831;50.474;7.616;2023-12-04T03:10:52;25.9;;;12.9;;
27357;SDS011;14831;50.474;7.616;2023-12-04T03:15:52;25.9;;;12.9;;
27357;SDS011;14831;50.474;7.616;2023-12-04T03:20:52;25.9;;;12.9;;
27357;SDS011;14831;50.474;7.616;2023-12-04T03:25:52;25.9;;;12.9;;
27357;SDS011;14831;50.474;7.616;2023-12-04T03:30:52;29.7;;;14.9;;
27357;SDS011;14831;50.474;7.616;2023-12-04T03:35:52;29.7;;;14.9;;
27357;SDS011;14831;50.474;7.616;2023-12-04T03:40:52;29.7;;;14.9;;
27357;SDS011;14831;50.474;7.616;2023-12-04T03:45:52;29.7;;;14.9;;
27357;SDS011;14831;50.474;7.616;2023-12-04T03:50:52;29.7;;;14.9;;
27357;SDS011;14831;50.474;7.616;2023-12-04T03:55:52;29.7;;;14.9;;
27357;SDS011;14831;50.474;7.616;2023-12-04T04:00:52;36.7;;;18.2;;
27357;SDS011;14831;50.474;7.616;2023-12-04T04:05:52;36.7;;;18.2;;
27357;SDS011;14831;50.474;7.616;2023-12-04T04:10:52;36.7;;;18.2;;
27357;SDS011;14831;50.474;7.616;2023-12-04T04:15:52;36.7;;;18.2;;
27357;SDS011;14831;50.474;7.616;2023-12-04T04:20:52;36.7;;;18.2;;
27357;SDS011;14831;50.474;7.616;2023-12-04T04:25:52;36.7;;;18.2;;
27357;SDS011;14831;50.474;7.616;2023-12-04T04:30:52;30.3;;;16.1;;
27357;SDS011;14831;50.474;7.616;2023-12-04T04:35:52;30.3;;;16.1;;
27357;SDS011;14831;50.474;7.616;2023-12-04T04:40:52;30.3;;;16.1;;
27357;SDS011;14831;50.474;7.616;2023-12-04T04:45:52;30.3;;;16.1;;
27357;SDS011;14831;50.474;7.616;2023-12-04T04:50:52;30.3;;;16.1;;
27357;SDS011;14831;50.474;7.616;2023-12-04T04:55:52;30.3;;;16.1;;
27357;SDS011;14831;50.474;7.616;2023-12-04T05:00:52;31.8;;;16.9;;
27357;SDS011;14831;50.474;7.616;2023-12-04T05:05:52;31.8;;;16.9;;
27357;SDS011;14831;50.474;7.616;2023-12-04T05:10:52;31.8;;;16.9;;
27357;SDS011;14831;50.474;7.616;2023-12-04T05:15:52;31.8;;;16.9;;
27357;SDS011;14831;50.474;7.616;2023-12-04T05:20:52;31.8;;;16.9;;
27357;SDS011;14831;50.474;7.616;2023-12-04T05:25:52;31.8;;;16.9;;
27357;SDS011;14831;50.474;7.616;2023-12-04T05:30:52;32.1;;;16.1;;
27357;SDS011;14831;50.474;7.616;2023-12-04T05:35:52;32.1;;;16.1;;
27357;SDS011;14831;50.474;7.616;2023-12-04T05:40:52;32.1;;;16.1;;
27357;SDS011;14831;50.474;7.616;2023-12-04T05:45:52;32.1;;;16.1;;
27357;SDS011;14831;50.474;7.616;2023-12-04T05:50:52;32.1;;;16.1;;
27357;SDS011;14831;50.474;7.616;2023-12-04T05:55:52;32.1;;;16.1;;
27357;SDS011;14831;50.474;7.616;2023-12-04T06:00:52;29.2;;;14.9;;
27357;SDS011;14831;50.474;7.616;2023-12-04T06:05:52;29.2;;;14.9;;
27357;SDS011;14831;50.474;7.616;2023-12-04T06:10:52;29.2;;;14.9;;
27357;SDS011;14831;50.474;7.616;2023-12-04T06:15:52;29.2;;;14.9;;
27357;SDS011;14831;50.474;7.616;2023-12-04T06:20:52;29.2;;;14.9;;
27357;SDS011;14831;50.474;7.616;2023-12-04T06:25:52;29.2;;;14.9;;
27357;SDS011;14831;50.474;7.616;2023-12-04T06:30:52;31.0;;;15.6;;
27357;SDS011;14831;50.474;7.616;2023-12-04T06:35:52;31.0;;;15.6;;
27357;SDS011;14831;50.474;7.616;2023-12-04T06:40:52;31.0;;;15.6;;
27357;SDS011;14831;50.474;7.616;2023-12-04T06:45:52;31.0;;;15.6;;
27357;SDS011;14831;50.474;7.616;2023-12-04T06:50:52;31.0;;;15.6;;
27357;SDS011;14831;50.474;7.616;2023-12-04T06:55:52;31.0;;;15.6;;
27357;SDS011;14831;50.474;7.616;2023-12-04T07:00:52;36.7;;;17.6;;
27357;SDS011;14831;50.474;7.616;2023-12-04T07:05:52;36.7;;;17.6;;
27357;SDS011;14831;50.474;7.616;2023-12-04T07:10:52;36.7;;;17.6;;
27357;SDS011;14831;50.474;7.616;2023-12-04T07:15:52;36.7;;;17.6;;
27357;SDS011;14831;50.474;7.616;2023-12-04T07:20:52;36.7;;;17.6;;
27357;SDS011;14831;50.474;7.616;2023-12-04T07:25:52;36.7;;;17.6;;
27357;SDS011;14831;50.474;7.616;2023-12-04T07:30:53;32.4;;;15.7;;
27357;SDS011;14831;50.474;7.616;2023-12-04T07:35:52;32.4;;;15.7;;
27357;SDS011;14831;50.474;7.616;2023-12-04T07:40:52;32.4;;;15.7;;
27357;SDS011;14831;50.474;7.616;2023-12-04T07:45:52;32.4;;;15.7;;
27357;SDS011;14831;50.474;7.616;2023-12-04T07:50:52;32.4;;;15.7;;
27357;SDS011;14831;50.474;7.616;2023-12-04T07:55:52;32.4;;;15.7;;
27357;SDS011;14831;50.474;7.616;2023-12-04T08:00:52;31.5;;;15.8;;
27357;SDS011;14831;50.474;7.616;2023-12-04T08:05:52;31.5;;;15.8;;
27357;SDS011;14831;50.474;7.616;2023-12-04T08:10:52;31.5;;;15.8;;
27357;SDS011;14831;50.474;7.616;2023-12-04T08:15:52;31.5;;;15.8;;
27357;SDS011;14831;50.474;7.616;2023-12-04T08:20:52;31.5;;;15.8;;
27357;SDS011;14831;50.474;7.616;2023-12-04T08:25:52;31.5;;;15.8;;
27357;SDS011;14831;50.474;7.616;2023-12-04T08:30:54;25.9;;;13.5;;
27357;SDS011;14831;50.474;7.616;2023-12-04T08:35:52;25.9;;;13.5;;
27357;SDS011;14831;50.474;7.616;2023-12-04T08:40:53;25.9;;;13.5;;
27357;SDS011;14831;50.474;7.616;2023-12-04T08:45:52;25.9;;;13.5;;
27357;SDS011;14831;50.474;7.616;2023-12-04T08:50:52;25.9;;;13.5;;
27357;SDS011;14831;50.474;7.616;2023-12-04T08:55:52;25.9;;;13.5;;
27357;SDS011;14831;50.474;7.616;2023-12-04T09:00:52;25.6;;;13.4;;
27357;SDS011;14831;50.474;7.616;2023-12-04T09:05:52;25.6;;;13.4;;
27357;SDS011;14831;50.474;7.616;2023-12-04T09:10:52;25.6;;;13.4;;
27357;SDS011;14831;50.474;7.616;2023-12-04T09:15:52;25.6;;;13.4;;
27357;SDS011;14831;50.474;7.616;2023-12-04T09:20:52;25.6;;;13.4;;
27357;SDS011;14831;50.474;7.616;2023-12-04T09:25:52;25.6;;;13.4;;
27357;SDS011;14831;50.474;7.616;2023-12-04T09:30:52;26.3;;;13.7;;
27357;SDS011;14831;50.474;7.616;2023-12-04T09:35:52;26.3;;;13.7;;
27357;SDS011;14831;50.474;7.616;2023-12-04T09:40:52;26.3;;;13.7;;
27357;SDS011;14831;50.474;7.616;2023-12-04T09:45:52;26.3;;;13.7;;
27357;SDS011;14831;50.474;7.616;2023-12-04T09:50:52;26.3;;;13.7;;
27357;SDS011;14831;50.474;7.616;2023-12-04T09:55:53;26.3;;;13.7;;
27357;SDS011;14831;50.474;7.616;2023-12-04T10:00:52;30.3;;;14.6;;
27357;SDS011;14831;50.474;7.616;2023-12-04T10:05:53;30.3;;;14.6;;
27357;SDS011;14831;50.474;7.616;2023-12-04T10:10:52;30.3;;;14.6;;
27357;SDS011;14831;50.474;7.616;2023-12-04T10:15:52;30.3;;;14.6;;
27357;SDS011;14831;50.474;7.616;2023-12-04T10:20:52;30.3;;;14.6;;
27357;SDS011;14831;50.474;7.616;2023-12-04T10:25:52;30.3;;;14.6;;
27357;SDS011;14831;50.474;7.616;2023-12-04T10:30:52;21.3;;;12.4;;
27357;SDS011;14831;50.474;7.616;2023-12-04T10:35:52;21.3;;;12.4;;
27357;SDS011;14831;50.474;7.616;2023-12-04T10:40:52;21.3;;;12.4;;
27357;SDS011;14831;50.474;7.616;2023-12-04T10:45:52;21.3;;;12.4;;
27357;SDS011;14831;50.474;7.616;2023-12-04T10:50:52;21.3;;;12.4;;
27357;SDS011;14831;50.474;7.616;2023-12-04T10:55:54;21.3;;;12.4;;
27357;SDS011;14831;50.474;7.616;2023-12-04T11:00:53;20.3;;;11.6;;
27357;SDS011;14831;50.474;7.616;2023-12-04T11:05:55;20.3;;;11.6;;
27357;SDS011;14831;50.474;7.616;2023-12-04T11:10:56;20.3;;;11.6;;
27357;SDS011;14831;50.474;7.616;2023-12-04T11:15:52;20.3;;;11.6;;
27357;SDS011;14831;50.474;7.616;2023-12-04T11:20:56;20.3;;;11.6;;
27357;SDS011;14831;50.474;7.616;2023-12-04T11:25:53;20.3;;;11.6;;
27357;SDS011;14831;50.474;7.616;2023-12-04T11:30:52;30.7;;;14.7;;
27357;SDS011;14831;50.474;7.616;2023-12-04T11:35:52;30.7;;;14.7;;
27357;SDS011;14831;50.474;7.616;2023-12-04T11:40:52;30.7;;;14.7;;
27357;SDS011;14831;50.474;7.616;2023-12-04T11:45:52;30.7;;;14.7;;
27357;SDS011;14831;50.474;7.616;2023-12-04T11:50:52;30.7;;;14.7;;
27357;SDS011;14831;50.474;7.616;2023-12-04T11:55:55;30.7;;;14.7;;
27357;SDS011;14831;50.474;7.616;2023-12-04T12:00:52;28.7;;;14.8;;
27357;SDS011;14831;50.474;7.616;2023-12-04T12:05:52;28.7;;;14.8;;
27357;SDS011;14831;50.474;7.616;2023-12-04T12:10:52;28.7;;;14.8;;
27357;SDS011;14831;50.474;7.616;2023-12-04T12:15:52;28.7;;;14.8;;
27357;SDS011;14831;50.474;7.616;2023-12-04T12:20:54;28.7;;;14.8;;
27357;SDS011;14831;50.474;7.616;2023-12-04T12:25:52;28.7;;;14.8;;
27357;SDS011;14831;50.474;7.616;2023-12-04T12:30:52;36.3;;;17.8;;
27357;SDS011;14831;50.474;7.616;2023-12-04T12:35:52;36.3;;;17.8;;
27357;SDS011;14831;50.474;7.616;2023-12-04T12:40:52;36.3;;;17.8;;
27357;SDS011;14831;50.474;7.616;2023-12-04T12:45:52;36.3;;;17.8;;
27357;SDS011;14831;50.474;7.616;2023-12-04T12:50:52;36.3;;;17.8;;
27357;SDS011;14831;50.474;7.616;2023-12-04T12:55:52;36.3;;;17.8;;
27357;SDS011;14831;50.474;7.616;2023-12-04T13:00:52;35.6;;;16.6;;
27357;SDS011;14831;50.474;7.616;2023-12-04T13:05:52;35.6;;;16.6;;
27357;SDS011;14831;50.474;7.616;2023-12-04T13:10:53;35.6;;;16.6;;
27357;SDS011;14831;50.474;7.616;2023-12-04T13:15:52;35.6;;;16.6;;
27357;SDS011;14831;50.474;7.616;2023-12-04T13:20:52;35.6;;;16.6;;
27357;SDS011;14831;50.474;7.616;2023-12-04T13:25:52;35.6;;;16.6;;
27357;SDS011;14831;50.474;7.616;2023-12-04T13:30:52;26.9;;;13.6;;
27357;SDS011;14831;50.474;7.616;2023-12-04T13:35:52;26.9;;;13.6;;
27357;SDS011;14831;50.474;7.616;2023-12-04T13:40:53;26.9;;;13.6;;
27357;SDS011;14831;50.474;7.616;2023-12-04T13:45:52;26.9;;;13.6;;
27357;SDS011;14831;50.474;7.616;2023-12-04T13:50:52;26.9;;;13.6;;
27357;SDS011;14831;50.474;7.616;2023-12-04T13:55:52;26.9;;;13.6;;
27357;SDS011;14831;50.474;7.616;2023-12-04T14:00:52;18.2;;;10.5;;
27357;SDS011;14831;50.474;7.616;2023-12-04T14:05:52;18.2;;;10.5;;
27357;SDS011;14831;50.474;7.616;2023-12-04T14:10:52;18.2;;;10.5;;
27357;SDS011;14831;50.474;7.616;2023-12-04T14:15:52;18.2;;;10.5;;
27357;SDS011;14831;50.474;7.616;2023-12-04T14:20:52;18.2;;;10.5;;
27357;SDS011;14831;50.474;7.616;2023-12-04T14:25:52;18.2;;;10.5;;
27357;SDS011;14831;50.474;7.616;2023-12-04T14:30:52;20.3;;;11.3;;
27357;SDS011;14831;50.474;7.616;2023-12-04T14:35:52;20.3;;;11.3;;
27357;SDS011;14831;50.474;7.616;2023-12-04T14:40:52;20.3;;;11.3;;
27357;SDS011;14831;50.474;7.616;2023-12-04T14:45:52;20.3;;;11.3;;
27357;SDS011;14831;50.474;7.616;2023-12-04T14:50:52;20.3;;;11.3;;
27357;SDS011;14831;50.474;7.616;2023-12-04T14:55:52;20.3;;;11.3;;
27357;SDS011;14831;50.474;7.616;2023-12-04T15:00:52;21.2;;;11.5;;
27357;SDS011;14831;50.474;7.616;2023-12-04T15:05:52;21.2;;;11.5;;
27357;SDS011;14831;50.474;7.616;2023-12-04T15:10:52;21.2;;;11.5;;
27357;SDS011;14831;50.474;7.616;2023-12-04T15:15:52;21.2;;;11.5;;
27357;SDS011;14831;50.474;7.616;2023-12-04T15:20:52;21.2;;;11.5;;
27357;SDS011;14831;50.474;7.616;2023-12-04T15:25:52;21.2;;;11.5;;
27357;SDS011;14831;50.474;7.616;2023-12-04T15:30:52;17.2;;;10.2;;
27357;SDS011;14831;50.474;7.616;2023-12-04T15:35:52;17.2;;;10.2;;
27357;SDS011;14831;50.474;7.616;2023-12-04T15:40:52;17.2;;;10.2;;
27357;SDS011;14831;50.474;7.616;2023-12-04T15:45:52;17.2;;;10.2;;
27357;SDS011;14831;50.474;7.616;2023-12-04T15:50:52;17.2;;;10.2;;
27357;SDS011;14831;50.474;7.616;2023-12-04T15:55:52;17.2;;;10.2;;
27357;SDS011;14831;50.474;7.616;2023-12-04T16:00:52;18.4;;;10.8;;
27357;SDS011;14831;50.474;7.616;2023-12-04T16:05:52;18.4;;;10.8;;
27357;SDS011;14831;50.474;7.616;2023-12-04T16:10:52;18.4;;;10.8;;
27357;SDS011;14831;50.474;7.616;2023-12-04T16:15:52;18.4;;;10.8;;
27357;SDS011;14831;50.474;7.616;2023-12-04T16:20:52;18.4;;;10.8;;
27357;SDS011;14831;50.474;7.616;2023-12-04T16:25:52;18.4;;;10.8;;
27357;SDS011;14831;50.474;7.616;2023-12-04T16:30:52;20.9;;;11.9;;
27357;SDS011;14831;50.474;7.616;2023-12-04T16:35:52;20.9;;;11.9;;
27357;SDS011;14831;50.474;7.616;2023-12-04T16:40:52;20.9;;;11.9;;
27357;SDS011;14831;50.474;7.616;2023-12-04T16:45:52;20.9;;;11.9;;
27357;SDS011;14831;50.474;7.616;2023-12-04T16:50:52;20.9;;;11.9;;
27357;SDS011;14831;50.474;7.616;2023-12-04T16:55:52;20.9;;;11.9;;
27357;SDS011;14831;50.474;7.616;2023-12-04T17:00:53;27.1;;;15.7;;
27357;SDS011;14831;50.474;7.616;2023-12-04T17:05:52;27.1;;;15.7;;
27357;SDS011;14831;50.474;7.616;2023-12-04T17:10:52;27.1;;;15.7;;
27357;SDS011;14831;50.474;7.616;2023-12-04T17:15:52;27.1;;;15.7;;
27357;SDS011;14831;50.474;7.616;2023-12-04T17:20:52;27.1;;;15.7;;
27357;SDS011;14831;50.474;7.616;2023-12-04T17:25:52;27.1;;;15.7;;
27357;SDS011;14831;50.474;7.616;2023-12-04T17:30:52;26.7;;;14.5;;
27357;SDS011;14831;50.474;7.616;2023-12-04T17:35:52;26.7;;;14.5;;
27357;SDS011;14831;50.474;7.616;2023-12-04T17:40:52;26.7;;;14.5;;
27357;SDS011;14831;50.474;7.616;2023-12-04T17:45:52;26.7;;;14.5;;
27357;SDS011;14831;50.474;7.616;2023-12-04T17:50:52;26.7;;;14.5;;
27357;SDS011;14831;50.474;7.616;2023-12-04T17:55:52;26.7;;;14.5;;
27357;SDS011;14831;50.474;7.616;2023-12-04T18:00:52;29.5;;;15.7;;
27357;SDS011;14831;50.474;7.616;2023-12-04T18:05:52;29.5;;;15.7;;
27357;SDS011;14831;50.474;7.616;2023-12-04T18:10:52;29.5;;;15.7;;
27357;SDS011;14831;50.474;7.616;2023-12-04T18:15:52;29.5;;;15.7;;
27357;SDS011;14831;50.474;7.616;2023-12-04T18:20:52;29.5;;;15.7;;
27357;SDS011;14831;50.474;7.616;2023-12-04T18:25:52;29.5;;;15.7;;
27357;SDS011;14831;50.474;7.616;2023-12-04T18:30:52;37.9;;;19.2;;
27357;SDS011;14831;50.474;7.616;2023-12-04T18:35:52;37.9;;;19.2;;
27357;SDS011;14831;50.474;7.616;2023-12-04T18:40:52;37.9;;;19.2;;
27357;SDS011;14831;50.474;7.616;2023-12-04T18:45:52;37.9;;;19.2;;
27357;SDS011;14831;50.474;7.616;2023-12-04T18:50:52;37.9;;;19.2;;
27357;SDS011;14831;50.474;7.616;2023-12-04T18:55:52;37.9;;;19.2;;
27357;SDS011;14831;50.474;7.616;2023-12-04T19:00:52;36.4;;;18.2;;
27357;SDS011;14831;50.474;7.616;2023-12-04T19:05:52;36.4;;;18.2;;
27357;SDS011;14831;50.474;7.616;2023-12-04T19:10:52;36.4;;;18.2;;
27357;SDS011;14831;50.474;7.616;2023-12-04T19:15:52;36.4;;;18.2;;
27357;SDS011;14831;50.474;7.616;2023-12-04T19:20:52;36.4;;;18.2;;
27357;SDS011;14831;50.474;7.616;2023-12-04T19:25:52;36.4;;;18.2;;
27357;SDS011;14831;50.474;7.616;2023-12-04T19:30:52;32.8;;;16.7;;
27357;SDS011;14831;50.474;7.616;2023-12-04T19:35:52;32.8;;;16.7;;
27357;SDS011;14831;50.474;7.616;2023-12-04T19:40:52;32.8;;;16.7;;
27357;SDS011;14831;50.474;7.616;2023-12-04T19:45:52;32.8;;;16.7;;
27357;SDS011;14831;50.474;7.616;2023-12-04T19:50:52;32.8;;;16.7;;
27357;SDS011;14831;50.474;7.616;2023-12-04T19:55:52;32.8;;;16.7;;
27357;SDS011;14831;50.474;7.616;2023-12-04T20:00:52;34.5;;;17.8;;
27357;SDS011;14831;50.474;7.616;2023-12-04T20:05:52;34.5;;;17.8;;
27357;SDS011;14831;50.474;7.616;2023-12-04T20:10:52;34.5;;;17.8;;
27357;SDS011;14831;50.474;7.616;2023-12-04T20:15:52;34.5;;;17.8;;
27357;SDS011;14831;50.474;7.616;2023-12-04T20:20:52;34.5;;;17.8;;
27357;SDS011;14831;50.474;7.616;2023-12-04T20:25:52;34.5;;;17.8;;
27357;SDS011;14831;50.474;7.616;2023-12-04T20:30:52;40.0;;;20.8;;
27357;SDS011;14831;50.474;7.616;2023-12-04T20:35:52;40.0;;;20.8;;
27357;SDS011;14831;50.474;7.616;2023-12-04T20:40:52;40.0;;;20.8;;
27357;SDS011;14831;50.474;7.616;2023-12-04T20:45:52;40.0;;;20.8;;
27357;SDS011;14831;50.474;7.616;2023-12-04T20:50:52;40.0;;;20.8;;
27357;SDS011;14831;50.474;7.616;2023-12-04T20:55:52;40.0;;;20.8;;
27357;SDS011;14831;50.474;7.616;2023-12-04T21:00:52;50.5;;;23.5;;
27357;SDS011;14831;50.474;7.616;2023-12-04T21:05:52;50.5;;;23.5;;
27357;SDS011;14831;50.474;7.616;2023-12-04T21:10:52;50.5;;;23.5;;
27357;SDS011;14831;50.474;7.616;2023-12-04T21:15:52;50.5;;;23.5;;
27357;SDS011;14831;50.474;7.616;2023-12-04T21:20:52;50.5;;;23.5;;
27357;SDS011;14831;50.474;7.616;2023-12-04T21:25:52;50.5;;;23.5;;
27357;SDS011;14831;50.474;7.616;2023-12-04T21:30:52;42.1;;;21.3;;
27357;SDS011;14831;50.474;7.616;2023-12-04T21:35:52;42.1;;;21.3;;
27357;SDS011;14831;50.474;7.616;2023-12-04T21:40:52;42.1;;;21.3;;
27357;SDS011;14831;50.474;7.616;2023-12-04T21:45:52;42.1;;;21.3;;
27357;SDS011;14831;50.474;7.616;2023-12-04T21:50:52;42.1;;;21.3;;
27357;SDS011;14831;50.474;7.616;2023-12-04T21:55:52;42.1;;;21.3;;
27357;SDS011;14831;50.474;7.616;2023-12-04T22:00:52;44.9;;;22.7;;
27357;SDS011;14831;50.474;7.616;2023-12-04T22:05:52;44.9;;;22.7;;
27357;SDS011;14831;50.474;7.616;2023-12-04T22:10:52;44.9;;;22.7;;
27357;SDS011;14831;50.474;7.616;2023-12-04T22:15:52;44.9;;;22.7;;
27357;SDS011;14831;50.474;7.616;2023-12-04T22:20:52;44.9;;;22.7;;
27357;SDS011;14831;50.474;7.616;2023-12-04T22:25:52;44.9;;;22.7;;
27357;SDS011;14831;50.474;7.616;2023-12-04T22:30:52;42.8;;;22.3;;
27357;SDS011;14831;50.474;7.616;2023-12-04T22:35:52;42.8;;;22.3;;
27357;SDS011;14831;50.474;7.616;2023-12-04T22:40:52;42.8;;;22.3;;
27357;SDS011;14831;50.474;7.616;2023-12-04T22:45:52;42.8;;;22.3;;
27357;SDS011;14831;50.474;7.616;2023-12-04T22:50:52;42.8;;;22.3;;
27357;SDS011;14831;50.474;7.616;2023-12-04T22:55:52;42.8;;;22.3;;
27357;SDS011;14831;50.474;7.616;2023-12-04T23:00:52;39.8;;;21.0;;
27357;SDS011;14831;50.474;7.616;2023-12-04T23:05:52;39.8;;;21.0;;
27357;SDS011;14831;50.474;7.616;2023-12-04T23:10:52;39.8;;;21.0;;
27357;SDS011;14831;50.474;7.616;2023-12-04T23:15:52;39.8;;;21.0;;
27357;SDS011;14831;50.474;7.616;2023-12-04T23:20:52;39.8;;;21.0;;
27357;SDS011;14831;50.474;7.616;2023-12-04T23:25:52;39.8;;;21.0;;
27357;SDS011;14831;50.474;7.616;2023-12-04T23:30:52;34.5;;;19.8;;
27357;SDS011;14831;50.474;7.616;2023-12-04T23:35:52;34.5;;;19.8;;
27357;SDS011;14831;50.474;7.616;2023-12-04T23:40:52;34.5;;;19.8;;
27357;SDS011;14831;50.474;7.616;2023-12-04T23:45:52;34.5;;;19.8;;
27357;SDS011;14831;50.474;7.616;2023-12-04T23:50:52;34.5;;;19.8;;
27357;SDS011;14831;50.474;7.616;2023-12-04T23:55:52;34.5;;;19.8;;
